Time;durP1;ratioP1;P1;durP2;ratioP2;P2;SDS_P1;SDS_P2;PMS_P1;PMS_P2;Temp;Humidity;BMP_temperature;BMP_pressure;BME280_temperature;BME280_humidity;BME280_pressure;Samples;Min_cycle;Max_cycle;Signal;HPM_P1;HPM_P2
2023/07/08 00:00:12;;;;;;;2.10;1.90;;;18.90;63.40;;;;;;5071984;28;20044;-75
2023/07/08 00:02:37;;;;;;;1.98;1.77;;;18.90;63.60;;;;;;5072342;28;20055;-75
2023/07/08 00:05:03;;;;;;;2.53;1.90;;;18.90;63.80;;;;;;5071305;28;20028;-75
2023/07/08 00:07:29;;;;;;;2.28;1.80;;;18.90;63.90;;;;;;5056276;28;20111;-75
2023/07/08 00:09:54;;;;;;;1.83;1.63;;;18.90;63.90;;;;;;5054360;28;20109;-75
2023/07/08 00:12:20;;;;;;;1.80;1.70;;;18.90;64.00;;;;;;5073551;28;20029;-74
2023/07/08 00:14:47;;;;;;;2.10;1.90;;;18.90;64.00;;;;;;5075477;28;20036;-74
2023/07/08 00:17:13;;;;;;;3.00;1.92;;;18.80;64.20;;;;;;5076244;28;20025;-74
2023/07/08 00:19:39;;;;;;;1.75;1.65;;;18.80;64.10;;;;;;5078015;28;20073;-74
2023/07/08 00:22:14;;;;;;;1.88;1.77;;;18.80;64.30;;;;;;5075023;28;20397;-75
2023/07/08 00:24:42;;;;;;;1.60;1.45;;;18.80;64.40;;;;;;5074726;28;20036;-74
2023/07/08 00:27:12;;;;;;;2.03;1.90;;;18.80;64.60;;;;;;5075375;28;20020;-74
2023/07/08 00:29:37;;;;;;;2.17;1.88;;;18.80;64.60;;;;;;5075753;28;20032;-73
2023/07/08 00:32:13;;;;;;;1.60;1.50;;;18.80;64.60;;;;;;5075311;28;20016;-75
2023/07/08 00:34:39;;;;;;;1.77;1.65;;;18.80;64.80;;;;;;5074339;28;20025;-75
2023/07/08 00:37:05;;;;;;;1.70;1.58;;;18.70;64.80;;;;;;5062962;28;20043;-76
2023/07/08 00:39:34;;;;;;;2.20;1.35;;;18.70;65.00;;;;;;5055580;28;20116;-75
2023/07/08 00:42:18;;;;;;;1.48;1.38;;;18.80;65.10;;;;;;5063405;28;20033;-74
2023/07/08 00:44:44;;;;;;;1.60;1.50;;;18.80;65.10;;;;;;5073858;28;20100;-74
2023/07/08 00:47:12;;;;;;;1.98;1.80;;;18.80;65.30;;;;;;5075645;28;20056;-75
2023/07/08 00:49:57;;;;;;;1.48;1.35;;;18.80;65.20;;;;;;5076021;28;20040;-74
2023/07/08 00:52:26;;;;;;;1.33;1.23;;;18.80;65.10;;;;;;5075974;28;20067;-74
2023/07/08 00:54:54;;;;;;;1.67;1.58;;;18.70;65.00;;;;;;5080127;28;20028;-74
2023/07/08 00:57:22;;;;;;;1.38;1.27;;;18.70;65.20;;;;;;5082693;28;20024;-74
2023/07/08 00:59:55;;;;;;;1.42;1.33;;;18.70;65.20;;;;;;5083512;28;20020;-74
2023/07/08 01:02:23;;;;;;;1.67;1.40;;;18.70;65.30;;;;;;5084154;28;20038;-75
2023/07/08 01:04:54;;;;;;;1.75;1.48;;;18.70;65.40;;;;;;5078560;28;20102;-74
2023/07/08 01:07:21;;;;;;;1.63;1.53;;;18.70;65.30;;;;;;5062840;28;20116;-74
2023/07/08 01:09:51;;;;;;;1.67;1.58;;;18.70;65.60;;;;;;5060143;28;20045;-75
2023/07/08 01:12:23;;;;;;;1.98;1.80;;;18.70;65.80;;;;;;5065305;28;20381;-74
2023/07/08 01:14:53;;;;;;;1.75;1.48;;;18.70;66.20;;;;;;5082658;28;20025;-74
2023/07/08 01:17:20;;;;;;;2.63;1.90;;;18.70;66.20;;;;;;5080438;28;20111;-74
2023/07/08 01:19:46;;;;;;;2.88;2.30;;;18.60;66.10;;;;;;5080239;28;20020;-75
2023/07/08 01:22:12;;;;;;;3.15;2.30;;;18.60;66.00;;;;;;5077976;28;20036;-74
2023/07/08 01:24:42;;;;;;;2.15;1.83;;;18.60;66.40;;;;;;5081589;28;20032;-74
2023/07/08 01:27:13;;;;;;;2.30;2.03;;;18.60;66.70;;;;;;5081266;28;20036;-74
2023/07/08 01:29:39;;;;;;;2.42;2.22;;;18.60;66.80;;;;;;5081385;28;20102;-75
2023/07/08 01:32:05;;;;;;;2.13;1.92;;;18.60;67.00;;;;;;5080937;28;20024;-75
2023/07/08 01:34:35;;;;;;;2.03;1.83;;;18.50;66.90;;;;;;5077052;28;20043;-75
2023/07/08 01:37:04;;;;;;;2.17;2.00;;;18.60;66.70;;;;;;5060825;28;20025;-74
2023/07/08 01:39:31;;;;;;;2.03;1.80;;;18.60;67.10;;;;;;5057072;28;20036;-74
2023/07/08 01:41:57;;;;;;;2.28;1.90;;;18.50;67.20;;;;;;5055869;28;20029;-74
2023/07/08 01:44:30;;;;;;;2.10;1.90;;;18.60;67.60;;;;;;5064157;28;20029;-74
2023/07/08 01:47:02;;;;;;;1.77;1.60;;;18.60;67.70;;;;;;5073919;28;20029;-74
2023/07/08 01:49:28;;;;;;;1.58;1.48;;;18.50;67.80;;;;;;5074053;28;20070;-75
2023/07/08 01:51:55;;;;;;;1.73;1.52;;;18.50;68.10;;;;;;5073844;28;20040;-75
2023/07/08 01:54:21;;;;;;;1.60;1.50;;;18.50;68.40;;;;;;5072938;28;20449;-75
2023/07/08 01:56:46;;;;;;;1.77;1.67;;;18.40;68.70;;;;;;5076590;28;20036;-75
2023/07/08 01:59:12;;;;;;;1.60;1.50;;;18.40;69.00;;;;;;5073755;28;20021;-74
2023/07/08 02:01:37;;;;;;;1.63;1.50;;;18.40;69.10;;;;;;5073682;28;20103;-74
2023/07/08 02:04:03;;;;;;;1.55;1.45;;;18.40;69.40;;;;;;5074139;28;20028;-75
2023/07/08 02:06:29;;;;;;;1.27;1.17;;;18.40;69.70;;;;;;5065920;28;20025;-75
2023/07/08 02:08:58;;;;;;;2.03;1.65;;;18.40;70.00;;;;;;5053240;28;20116;-73
2023/07/08 02:11:24;;;;;;;1.65;1.55;;;18.40;70.10;;;;;;5056048;28;20026;-73
2023/07/08 02:13:49;;;;;;;2.15;1.77;;;18.40;70.20;;;;;;5053265;28;20509;-74
2023/07/08 02:16:15;;;;;;;1.88;1.77;;;18.40;70.00;;;;;;5071066;28;20105;-74
2023/07/08 02:18:40;;;;;;;2.10;1.90;;;18.30;70.00;;;;;;5073460;28;20024;-74
2023/07/08 02:21:06;;;;;;;1.55;1.45;;;18.30;69.90;;;;;;5073699;28;20062;-74
2023/07/08 02:23:32;;;;;;;1.70;1.60;;;18.30;69.90;;;;;;5075375;28;20381;-74
2023/07/08 02:25:57;;;;;;;1.90;1.58;;;18.30;70.10;;;;;;5077091;28;20028;-73
2023/07/08 02:28:23;;;;;;;1.98;1.80;;;18.30;70.00;;;;;;5074200;28;20539;-74
2023/07/08 02:30:48;;;;;;;1.60;1.50;;;18.30;69.80;;;;;;5074638;28;20021;-74
2023/07/08 02:33:17;;;;;;;2.20;2.00;;;18.30;70.10;;;;;;5073262;28;20084;-74
2023/07/08 02:35:43;;;;;;;2.60;2.00;;;18.20;70.40;;;;;;5071965;28;20374;-74
2023/07/08 02:38:09;;;;;;;2.80;2.55;;;18.10;71.10;;;;;;5071682;28;20074;-75
2023/07/08 02:40:34;;;;;;;2.95;2.20;;;18.00;71.80;;;;;;5071232;28;20057;-75
2023/07/08 02:43:00;;;;;;;3.08;2.63;;;17.90;72.60;;;;;;5072627;28;20029;-75
2023/07/08 02:45:25;;;;;;;3.50;2.83;;;17.90;73.20;;;;;;5072165;28;20070;-75
2023/07/08 02:47:51;;;;;;;2.92;2.50;;;17.80;73.80;;;;;;5072753;28;20087;-74
2023/07/08 02:50:18;;;;;;;3.10;2.65;;;17.80;74.40;;;;;;5074951;28;20017;-75
2023/07/08 02:52:44;;;;;;;2.58;2.35;;;17.80;74.90;;;;;;5072310;28;20091;-75
2023/07/08 02:55:09;;;;;;;2.38;2.10;;;17.70;75.20;;;;;;5071963;28;20113;-74
2023/07/08 02:57:35;;;;;;;2.78;2.50;;;17.70;75.40;;;;;;5073360;28;20082;-72
2023/07/08 03:00:04;;;;;;;2.33;1.98;;;17.70;75.50;;;;;;5071066;28;20032;-72
2023/07/08 03:02:30;;;;;;;2.75;2.30;;;17.80;75.40;;;;;;5071104;28;20031;-73
2023/07/08 03:04:58;;;;;;;2.55;2.33;;;17.70;75.30;;;;;;5071392;28;20437;-73
2023/07/08 03:07:24;;;;;;;2.50;2.30;;;17.70;75.20;;;;;;5058832;28;20445;-74
2023/07/08 03:09:50;;;;;;;2.72;2.42;;;17.70;75.40;;;;;;5051675;28;20059;-73
2023/07/08 03:12:16;;;;;;;2.58;2.20;;;17.70;75.60;;;;;;5057008;28;20020;-73
2023/07/08 03:14:41;;;;;;;2.70;2.50;;;17.70;75.80;;;;;;5071583;28;20047;-73
2023/07/08 03:17:07;;;;;;;2.70;2.40;;;17.60;76.10;;;;;;5073612;28;20040;-73
2023/07/08 03:19:33;;;;;;;3.83;2.75;;;17.60;76.50;;;;;;5072266;28;20028;-74
2023/07/08 03:21:58;;;;;;;3.75;3.03;;;17.60;76.90;;;;;;5073137;28;20093;-73
2023/07/08 03:24:24;;;;;;;3.30;2.85;;;17.50;77.20;;;;;;5072520;28;20031;-74
2023/07/08 03:26:54;;;;;;;3.25;2.75;;;17.50;77.40;;;;;;5076030;28;20390;-73
2023/07/08 03:29:20;;;;;;;2.45;2.17;;;17.50;77.50;;;;;;5072167;28;20409;-75
2023/07/08 03:31:45;;;;;;;2.72;2.33;;;17.50;77.50;;;;;;5071012;28;20021;-73
2023/07/08 03:34:13;;;;;;;3.65;3.08;;;17.50;77.50;;;;;;5074356;28;20035;-74
2023/07/08 03:36:50;;;;;;;4.57;3.45;;;17.50;77.40;;;;;;5063327;28;20029;-74
2023/07/08 03:39:20;;;;;;;5.45;4.53;;;17.50;77.40;;;;;;5051731;28;20031;-73
2023/07/08 03:41:48;;;;;;;6.32;4.63;;;17.50;77.40;;;;;;5053048;28;20379;-73
2023/07/08 03:44:15;;;;;;;5.68;4.32;;;17.50;77.20;;;;;;5070486;28;20032;-73
2023/07/08 03:46:42;;;;;;;3.42;3.08;;;17.50;77.10;;;;;;5071132;28;20021;-73
2023/07/08 03:49:09;;;;;;;4.18;3.40;;;17.50;76.70;;;;;;5071277;28;20028;-74
2023/07/08 03:51:38;;;;;;;4.57;3.65;;;17.60;76.30;;;;;;5071844;28;20086;-73
2023/07/08 03:54:05;;;;;;;3.80;3.17;;;17.60;76.00;;;;;;5053148;28;20108;-73
2023/07/08 03:56:31;;;;;;;4.32;3.53;;;17.60;75.90;;;;;;5075131;28;20059;-74
2023/07/08 03:58:57;;;;;;;3.85;3.22;;;17.60;75.70;;;;;;5075082;28;20031;-74
2023/07/08 04:01:24;;;;;;;3.83;3.38;;;17.70;75.50;;;;;;5074237;28;20032;-74
2023/07/08 04:03:52;;;;;;;3.67;3.00;;;17.70;75.50;;;;;;5074844;28;20025;-73
2023/07/08 04:06:19;;;;;;;3.85;3.10;;;17.80;75.50;;;;;;5067686;28;20055;-75
2023/07/08 04:08:44;;;;;;;2.60;2.40;;;17.90;75.40;;;;;;5073588;28;20432;-75
2023/07/08 04:11:21;;;;;;;2.92;2.65;;;17.90;75.10;;;;;;5071506;28;20024;-75
2023/07/08 04:13:48;;;;;;;3.10;2.80;;;18.00;74.70;;;;;;5062805;28;20049;-75
2023/07/08 04:16:22;;;;;;;2.25;2.05;;;18.10;74.60;;;;;;5050976;28;20543;-75
2023/07/08 04:18:50;;;;;;;2.45;2.25;;;18.10;74.50;;;;;;5053047;28;20025;-75
2023/07/08 04:21:17;;;;;;;2.65;2.45;;;18.20;74.20;;;;;;5071004;28;20017;-74
2023/07/08 04:23:43;;;;;;;3.35;2.63;;;18.30;74.40;;;;;;5070968;28;20108;-75
2023/07/08 04:26:09;;;;;;;2.88;2.40;;;18.30;74.00;;;;;;5070671;28;20060;-77
2023/07/08 04:28:36;;;;;;;2.95;2.70;;;18.40;73.50;;;;;;5071235;28;20029;-75
2023/07/08 04:31:01;;;;;;;3.33;2.92;;;18.40;73.10;;;;;;5072024;28;20454;-77
2023/07/08 04:33:27;;;;;;;3.13;2.65;;;18.40;73.00;;;;;;5069700;28;20043;-74
2023/07/08 04:35:54;;;;;;;2.75;2.40;;;18.40;73.10;;;;;;5067668;28;20024;-74
2023/07/08 04:38:22;;;;;;;2.42;2.22;;;18.50;73.30;;;;;;5052931;28;20106;-75
2023/07/08 04:40:49;;;;;;;2.40;2.20;;;18.50;72.80;;;;;;5054226;28;20029;-74
2023/07/08 04:43:15;;;;;;;2.40;2.20;;;18.60;72.60;;;;;;5051523;28;20060;-74
2023/07/08 04:45:42;;;;;;;2.47;2.13;;;18.70;72.50;;;;;;5051866;28;20048;-74
2023/07/08 04:48:13;;;;;;;1.90;1.80;;;18.70;72.10;;;;;;5054023;28;20056;-74
2023/07/08 04:50:43;;;;;;;2.05;1.85;;;18.80;72.10;;;;;;5068948;28;20075;-75
2023/07/08 04:53:10;;;;;;;1.70;1.60;;;18.90;71.90;;;;;;5071811;28;20025;-74
2023/07/08 04:55:43;;;;;;;1.45;1.35;;;19.00;71.80;;;;;;5073344;28;20032;-75
2023/07/08 04:58:09;;;;;;;2.28;1.92;;;19.10;71.80;;;;;;5074557;28;20654;-74
2023/07/08 05:00:34;;;;;;;1.50;1.40;;;19.20;71.60;;;;;;5075833;28;20161;-74
2023/07/08 05:03:00;;;;;;;1.50;1.40;;;19.30;71.00;;;;;;5075918;28;20120;-74
2023/07/08 05:05:26;;;;;;;1.88;1.75;;;19.40;70.40;;;;;;5077177;28;20094;-74
2023/07/08 05:07:52;;;;;;;2.33;1.98;;;19.50;69.80;;;;;;5076350;28;20025;-75
2023/07/08 05:10:18;;;;;;;1.67;1.58;;;19.60;69.80;;;;;;5080165;28;20020;-77
2023/07/08 05:12:44;;;;;;;1.85;1.75;;;19.60;69.00;;;;;;5074737;28;20021;-74
2023/07/08 05:15:11;;;;;;;2.10;1.90;;;;;;;;;;5075862;28;20039;-74
2023/07/08 05:17:38;;;;;;;2.30;2.10;;;19.90;68.30;;;;;;5076408;28;20017;-75
2023/07/08 05:20:07;;;;;;;2.60;2.40;;;20.00;68.20;;;;;;5076816;28;20446;-75
2023/07/08 05:22:34;;;;;;;2.53;2.33;;;20.10;68.00;;;;;;5076008;28;20032;-74
2023/07/08 05:24:59;;;;;;;2.35;2.15;;;20.20;67.70;;;;;;5075527;28;20111;-74
2023/07/08 05:27:25;;;;;;;2.40;2.20;;;20.40;67.50;;;;;;5077276;28;20060;-75
2023/07/08 05:29:51;;;;;;;4.25;2.40;;;20.60;66.90;;;;;;5077224;28;20070;-75
2023/07/08 05:32:17;;;;;;;3.42;2.80;;;20.80;66.20;;;;;;5076409;28;20021;-74
2023/07/08 05:34:44;;;;;;;3.63;3.20;;;21.00;65.80;;;;;;5076978;28;20349;-75
2023/07/08 05:37:11;;;;;;;3.45;3.15;;;21.30;65.20;;;;;;5063385;28;20104;-74
2023/07/08 05:39:36;;;;;;;5.20;4.25;;;21.70;64.40;;;;;;5064639;28;20035;-74
2023/07/08 05:42:02;;;;;;;7.13;4.85;;;22.20;62.90;;;;;;5075662;28;20036;-75
2023/07/08 05:44:28;;;;;;;7.03;5.55;;;22.30;61.80;;;;;;5075363;28;20033;-75
2023/07/08 05:46:54;;;;;;;8.93;5.78;;;22.20;61.90;;;;;;5076316;28;20070;-75
2023/07/08 05:49:19;;;;;;;6.35;5.47;;;22.20;62.40;;;;;;5075359;28;20491;-74
2023/07/08 05:51:45;;;;;;;6.05;5.22;;;22.30;62.30;;;;;;5075767;28;20036;-74
2023/07/08 05:54:11;;;;;;;5.68;5.00;;;;;;;;;;5075796;28;20032;-74
2023/07/08 05:56:37;;;;;;;4.82;4.32;;;24.60;58.90;;;;;;5075126;28;20086;-74
2023/07/08 05:59:03;;;;;;;5.18;4.63;;;25.90;56.70;;;;;;5075902;28;20024;-74
2023/07/08 06:01:29;;;;;;;5.50;4.88;;;27.00;53.70;;;;;;5076638;28;20048;-74
2023/07/08 06:03:58;;;;;;;5.20;4.30;;;27.60;51.30;;;;;;5075472;28;20512;-74
2023/07/08 06:06:24;;;;;;;4.15;3.70;;;28.10;50.90;;;;;;5069255;28;20021;-75
2023/07/08 06:08:49;;;;;;;3.63;3.33;;;28.60;49.80;;;;;;5055296;28;20462;-74
2023/07/08 06:11:16;;;;;;;3.92;3.60;;;28.70;48.70;;;;;;5058598;28;20025;-73
2023/07/08 06:13:41;;;;;;;3.10;2.85;;;28.50;48.50;;;;;;5076291;28;20021;-74
2023/07/08 06:16:07;;;;;;;3.40;3.10;;;27.90;48.50;;;;;;5077862;28;20107;-74
2023/07/08 06:18:33;;;;;;;3.22;2.92;;;27.40;49.20;;;;;;5076164;28;20492;-74
2023/07/08 06:20:59;;;;;;;3.33;2.80;;;27.50;49.90;;;;;;5075741;28;20020;-74
2023/07/08 06:23:25;;;;;;;3.40;3.08;;;27.20;49.30;;;;;;5073432;28;20041;-73
2023/07/08 06:25:51;;;;;;;3.10;2.83;;;26.70;50.30;;;;;;5073684;28;20335;-75
2023/07/08 06:28:17;;;;;;;3.28;2.97;;;26.60;51.60;;;;;;5073628;28;20024;-75
2023/07/08 06:30:43;;;;;;;2.80;2.60;;;27.50;51.20;;;;;;5073831;28;20067;-74
2023/07/08 06:33:09;;;;;;;3.50;3.20;;;28.60;49.70;;;;;;5074257;28;20029;-75
2023/07/08 06:35:35;;;;;;;2.88;2.67;;;;;;;;;;5076129;28;20024;-74
2023/07/08 06:38:01;;;;;;;2.88;2.67;;;;;;;;;;5053459;28;20036;-73
2023/07/08 06:40:27;;;;;;;2.80;2.60;;;;;;;;;;5053672;28;20061;-73
2023/07/08 06:42:53;;;;;;;2.30;2.20;;;;;;;;;;5053180;28;20036;-74
2023/07/08 06:45:19;;;;;;;2.28;2.13;;;;;;;;;;5068372;28;20397;-75
2023/07/08 06:47:46;;;;;;;2.45;2.30;;;;;;;;;;5073375;28;20043;-75
2023/07/08 06:50:11;;;;;;;3.05;2.83;;;30.20;44.80;;;;;;5073949;28;20451;-75
2023/07/08 06:52:37;;;;;;;2.75;2.55;;;29.90;45.50;;;;;;5074232;28;20093;-75
2023/07/08 06:55:09;;;;;;;2.60;2.40;;;29.40;46.20;;;;;;5072998;28;20032;-75
2023/07/08 06:57:34;;;;;;;;;;;29.10;46.90;;;;;;5073290;28;20210;-75
2023/07/08 07:00:00;;;;;;;3.40;3.10;;;28.60;47.30;;;;;;5073105;28;20037;-75
2023/07/08 07:02:27;;;;;;;3.10;2.90;;;27.90;48.20;;;;;;5074921;28;20025;-74
2023/07/08 07:04:52;;;;;;;3.13;2.88;;;27.30;49.30;;;;;;5073151;28;20025;-74
2023/07/08 07:07:18;;;;;;;3.30;2.28;;;26.70;50.40;;;;;;5059858;28;20032;-74
2023/07/08 07:09:44;;;;;;;3.35;3.05;;;26.60;51.60;;;;;;5055000;28;20506;-74
2023/07/08 07:12:09;;;;;;;2.80;2.58;;;27.40;51.10;;;;;;5053209;28;20110;-75
2023/07/08 07:14:35;;;;;;;3.75;3.20;;;28.10;49.40;;;;;;5051980;28;20132;-74
2023/07/08 07:17:01;;;;;;;3.22;2.92;;;28.00;49.00;;;;;;5057667;28;20128;-75
2023/07/08 07:19:26;;;;;;;3.10;2.90;;;27.60;49.50;;;;;;5073769;28;20033;-75
2023/07/08 07:21:52;;;;;;;2.90;2.70;;;27.20;50.20;;;;;;5071347;28;20024;-74
2023/07/08 07:24:18;;;;;;;2.85;2.65;;;27.20;50.40;;;;;;5071764;28;20541;-75
2023/07/08 07:26:44;;;;;;;3.03;2.78;;;27.10;51.10;;;;;;5072364;28;20452;-74
2023/07/08 07:29:10;;;;;;;3.78;3.38;;;26.80;50.70;;;;;;5073043;28;20052;-74
2023/07/08 07:31:35;;;;;;;4.60;4.10;;;26.50;51.10;;;;;;5072274;28;20100;-74
2023/07/08 07:34:01;;;;;;;4.30;3.90;;;26.10;51.90;;;;;;5071549;28;20466;-74
2023/07/08 07:36:28;;;;;;;4.70;4.25;;;25.80;52.70;;;;;;5071731;28;20016;-75
2023/07/08 07:38:54;;;;;;;4.40;3.83;;;25.80;53.70;;;;;;5072295;28;20135;-74
2023/07/08 07:41:20;;;;;;;4.60;3.97;;;26.00;53.30;;;;;;5071968;28;20056;-75
2023/07/08 07:43:46;;;;;;;4.72;4.22;;;25.90;52.90;;;;;;5072287;28;20027;-74
2023/07/08 07:46:12;;;;;;;4.85;3.90;;;25.70;53.60;;;;;;5071952;28;20035;-74
2023/07/08 07:48:38;;;;;;;4.78;3.72;;;25.80;53.70;;;;;;5072307;28;20027;-75
2023/07/08 07:51:05;;;;;;;6.18;5.03;;;25.90;53.60;;;;;;5071587;28;20066;-74
2023/07/08 07:53:31;;;;;;;4.78;4.35;;;26.00;53.50;;;;;;5071971;28;20035;-74
2023/07/08 07:56:01;;;;;;;5.07;4.57;;;26.00;53.50;;;;;;5072015;28;20048;-74
2023/07/08 07:58:26;;;;;;;4.28;3.88;;;26.10;53.20;;;;;;5072714;28;20043;-74
2023/07/08 08:00:52;;;;;;;4.38;3.97;;;26.20;53.30;;;;;;5072200;28;20025;-75
2023/07/08 08:03:20;;;;;;;5.25;4.70;;;26.30;53.00;;;;;;5072674;28;20024;-75
2023/07/08 08:05:46;;;;;;;5.50;4.70;;;26.50;52.40;;;;;;5070166;28;20021;-74
2023/07/08 08:08:12;;;;;;;6.30;5.70;;;26.60;51.90;;;;;;5071049;28;20024;-75
2023/07/08 08:10:37;;;;;;;7.93;6.60;;;26.50;51.70;;;;;;5073058;28;20032;-75
2023/07/08 08:13:03;;;;;;;9.02;6.80;;;26.60;51.80;;;;;;5071934;28;20025;-73
2023/07/08 08:15:29;;;;;;;7.07;6.30;;;26.60;51.40;;;;;;5071872;28;20397;-74
2023/07/08 08:17:55;;;;;;;7.90;6.88;;;26.50;51.40;;;;;;5074167;28;20039;-75
2023/07/08 08:20:24;;;;;;;9.05;7.57;;;26.40;51.40;;;;;;5074331;28;20499;-75
2023/07/08 08:22:51;;;;;;;9.30;7.38;;;;;;;;;;5071224;28;20024;-75
2023/07/08 08:25:19;;;;;;;10.85;7.38;;;26.40;51.20;;;;;;5071078;28;20067;-75
2023/07/08 08:27:45;;;;;;;8.70;7.43;;;26.30;51.90;;;;;;5072279;28;20479;-74
2023/07/08 08:30:11;;;;;;;9.07;7.53;;;26.30;52.00;;;;;;5071814;28;20016;-74
2023/07/08 08:32:37;;;;;;;8.20;7.32;;;26.10;52.60;;;;;;5073590;28;20116;-74
2023/07/08 08:35:03;;;;;;;9.80;8.40;;;26.00;53.20;;;;;;5076311;28;20485;-75
2023/07/08 08:37:29;;;;;;;8.50;7.50;;;26.00;53.10;;;;;;5060628;28;20021;-75
2023/07/08 08:39:54;;;;;;;10.02;7.70;;;26.00;52.80;;;;;;5061310;28;20036;-74
2023/07/08 08:42:42;;;;;;;10.10;7.30;;;26.00;52.90;;;;;;5075614;28;20033;-75
2023/07/08 08:45:13;;;;;;;9.85;7.38;;;26.20;52.80;;;;;;5075327;28;20028;-75
2023/07/08 08:47:42;;;;;;;12.10;7.95;;;26.20;52.80;;;;;;5075553;28;20056;-74
2023/07/08 08:50:24;;;;;;;9.52;7.40;;;26.20;52.60;;;;;;5075204;28;20427;-75
2023/07/08 08:52:51;;;;;;;8.40;7.00;;;26.30;53.00;;;;;;5074950;28;20029;-75
2023/07/08 08:55:17;;;;;;;9.40;7.72;;;26.50;52.80;;;;;;5075025;28;20054;-74
2023/07/08 08:58:06;;;;;;;11.60;8.15;;;26.60;52.50;;;;;;5075122;28;20167;-74
2023/07/08 09:00:56;;;;;;;8.75;7.15;;;26.50;52.00;;;;;;5077433;28;20043;-74
2023/07/08 09:03:32;;;;;;;8.00;6.28;;;26.40;52.70;;;;;;5075494;28;20017;-74
2023/07/08 09:05:59;;;;;;;9.98;7.45;;;26.40;52.80;;;;;;5063839;28;20017;-75
2023/07/08 09:08:34;;;;;;;8.32;6.97;;;26.40;52.20;;;;;;5055623;28;20466;-74
2023/07/08 09:11:24;;;;;;;8.52;7.07;;;26.60;52.30;;;;;;5055817;28;20017;-74
2023/07/08 09:13:52;;;;;;;7.60;6.85;;;26.90;52.10;;;;;;5066490;28;20072;-75
2023/07/08 09:16:38;;;;;;;9.82;7.05;;;27.10;51.20;;;;;;5075687;28;20043;-74
2023/07/08 09:19:11;;;;;;;8.27;7.10;;;27.00;50.60;;;;;;5075619;28;20515;-75
2023/07/08 09:21:41;;;;;;;7.60;6.45;;;26.90;50.90;;;;;;5075768;28;20029;-76
2023/07/08 09:24:18;;;;;;;8.98;7.53;;;26.90;51.30;;;;;;5074724;28;20480;-75
2023/07/08 09:26:47;;;;;;;8.13;6.93;;;27.00;51.10;;;;;;5075827;28;20032;-74
2023/07/08 09:29:12;;;;;;;8.70;7.25;;;27.10;51.10;;;;;;5075051;28;20436;-74
2023/07/08 09:31:41;;;;;;;11.63;7.53;;;27.20;50.60;;;;;;5074766;28;20048;-74
2023/07/08 09:34:22;;;;;;;10.73;6.88;;;27.10;50.60;;;;;;5077864;28;20021;-74
2023/07/08 09:36:49;;;;;;;8.77;7.05;;;26.90;51.10;;;;;;5077166;28;20021;-75
2023/07/08 09:39:17;;;;;;;10.90;7.60;;;26.90;51.40;;;;;;5069099;28;20036;-75
2023/07/08 09:41:46;;;;;;;6.80;6.15;;;27.10;51.30;;;;;;5068203;28;20029;-75
2023/07/08 09:44:29;;;;;;;9.98;6.88;;;27.00;51.50;;;;;;5068251;28;20036;-74
2023/07/08 09:46:58;;;;;;;12.50;7.20;;;26.90;51.30;;;;;;5081949;28;20037;-75
2023/07/08 09:49:32;;;;;;;8.45;7.25;;;26.80;51.90;;;;;;5091994;28;20054;-75
2023/07/08 09:51:58;;;;;;;7.50;6.10;;;26.80;52.50;;;;;;5084642;28;20029;-74
2023/07/08 09:54:25;;;;;;;9.73;6.90;;;27.00;52.00;;;;;;5077276;28;20028;-74
2023/07/08 09:57:00;;;;;;;6.68;5.85;;;27.30;51.50;;;;;;5075697;28;20021;-75
2023/07/08 09:59:37;;;;;;;8.38;6.03;;;27.60;51.50;;;;;;5074610;28;20053;-75
2023/07/08 10:02:21;;;;;;;7.30;6.03;;;27.80;50.60;;;;;;5075168;28;20025;-75
2023/07/08 10:04:51;;;;;;;8.10;6.70;;;27.90;50.60;;;;;;5073611;28;20089;-76
2023/07/08 10:07:17;;;;;;;8.82;6.72;;;28.00;50.20;;;;;;5060030;28;20052;-75
2023/07/08 10:09:42;;;;;;;8.73;6.32;;;28.20;49.30;;;;;;5053959;28;20025;-74
2023/07/08 10:12:13;;;;;;;8.88;6.28;;;28.40;49.40;;;;;;5056510;28;20029;-75
2023/07/08 10:14:53;;;;;;;9.30;6.38;;;28.50;49.30;;;;;;5053987;28;20109;-74
2023/07/08 10:17:20;;;;;;;6.88;5.95;;;28.50;48.90;;;;;;5054841;28;20036;-75
2023/07/08 10:19:46;;;;;;;7.70;5.90;;;28.50;48.40;;;;;;5064813;28;20409;-75
2023/07/08 10:22:41;;;;;;;6.60;5.88;;;28.50;48.40;;;;;;5073929;28;20036;-75
2023/07/08 10:25:13;;;;;;;6.75;6.15;;;28.70;48.50;;;;;;5073493;28;20029;-75
2023/07/08 10:27:54;;;;;;;;;;;28.70;48.60;;;;;;5077007;28;20107;-75
2023/07/08 10:30:21;;;;;;;7.57;5.05;;;28.80;48.50;;;;;;5075347;28;19955;-74
2023/07/08 10:33:24;;;;;;;6.68;5.95;;;28.80;48.10;;;;;;5073771;28;20044;-74
2023/07/08 10:35:56;;;;;;;9.20;6.28;;;28.60;48.80;;;;;;5073521;28;20031;-75
2023/07/08 10:38:40;;;;;;;;;;;28.40;48.80;;;;;;5075007;28;20114;-74
2023/07/08 10:41:17;;;;;;;6.97;5.72;;;28.20;49.10;;;;;;5074011;28;19911;-75
2023/07/08 10:44:07;;;;;;;7.00;6.20;;;28.00;49.40;;;;;;5074930;28;20027;-74
2023/07/08 10:47:05;;;;;;;6.95;6.25;;;28.10;49.40;;;;;;5074599;28;20152;-74
2023/07/08 10:49:37;;;;;;;6.75;5.75;;;;;;;;;;5073739;28;20024;-74
2023/07/08 10:52:05;;;;;;;7.70;6.40;;;28.10;49.20;;;;;;5073025;28;20028;-75
2023/07/08 10:54:51;;;;;;;7.00;6.03;;;28.10;49.30;;;;;;5057169;28;20056;-75
2023/07/08 10:57:33;;;;;;;5.70;5.15;;;28.20;49.40;;;;;;5070359;28;20036;-74
2023/07/08 10:59:58;;;;;;;5.80;5.03;;;28.50;49.00;;;;;;5072540;28;20074;-75
2023/07/08 11:03:07;;;;;;;6.47;4.97;;;28.80;48.50;;;;;;5073557;28;20109;-74
2023/07/08 11:05:50;;;;;;;6.57;5.47;;;29.00;48.00;;;;;;5072674;28;20056;-74
2023/07/08 11:08:34;;;;;;;7.00;6.05;;;29.10;47.20;;;;;;5053891;28;20025;-75
2023/07/08 11:11:07;;;;;;;6.72;5.97;;;29.40;47.10;;;;;;5054937;28;20063;-74
2023/07/08 11:13:39;;;;;;;6.70;5.93;;;29.40;46.40;;;;;;5059091;28;20036;-75
2023/07/08 11:16:21;;;;;;;;;;;29.50;46.70;;;;;;5057946;28;20425;-74
2023/07/08 11:19:05;;;;;;;7.57;5.38;;;29.50;46.70;;;;;;5056200;28;19905;-75
2023/07/08 11:21:44;;;;;;;8.77;5.97;;;29.50;46.50;;;;;;5055836;28;20112;-74
2023/07/08 11:24:23;;;;;;;6.25;5.65;;;29.60;46.10;;;;;;5054804;28;20043;-75
2023/07/08 11:27:14;;;;;;;7.00;6.15;;;29.60;46.20;;;;;;5072004;28;20028;-75
2023/07/08 11:29:48;;;;;;;6.40;5.78;;;29.50;45.90;;;;;;5072736;28;20481;-75
2023/07/08 11:32:17;;;;;;;5.85;5.10;;;29.50;46.20;;;;;;5072856;28;20043;-75
2023/07/08 11:34:47;;;;;;;5.60;4.97;;;29.60;46.20;;;;;;5072827;28;20534;-74
2023/07/08 11:37:13;;;;;;;7.07;5.70;;;29.90;45.70;;;;;;5059651;28;20112;-74
2023/07/08 11:39:43;;;;;;;6.03;5.13;;;30.00;45.20;;;;;;5052672;28;20036;-74
2023/07/08 11:42:18;;;;;;;6.65;5.72;;;30.10;45.40;;;;;;5056161;28;20055;-75
2023/07/08 11:44:49;;;;;;;7.93;6.38;;;30.20;45.00;;;;;;5072036;28;20106;-75
2023/07/08 11:47:46;;;;;;;7.95;6.15;;;30.10;44.30;;;;;;5072249;28;20405;-75
2023/07/08 11:50:39;;;;;;;6.03;5.43;;;29.90;43.90;;;;;;5072185;28;20024;-75
2023/07/08 11:53:11;;;;;;;6.25;5.30;;;29.90;44.50;;;;;;5072155;28;20036;-74
2023/07/08 11:56:01;;;;;;;7.40;5.72;;;30.10;44.20;;;;;;5072157;28;20095;-75
2023/07/08 11:58:32;;;;;;;5.97;5.30;;;30.20;44.00;;;;;;5072692;28;20505;-75
2023/07/08 12:00:58;;;;;;;5.85;5.03;;;30.30;43.60;;;;;;5070999;28;20067;-75
2023/07/08 12:03:38;;;;;;;5.40;4.90;;;30.40;43.50;;;;;;5070664;28;20052;-75
2023/07/08 12:06:42;;;;;;;6.60;5.38;;;30.50;43.10;;;;;;5073282;28;20016;-74
2023/07/08 12:09:30;;;;;;;6.97;6.28;;;30.60;43.00;;;;;;5072326;28;20036;-74
2023/07/08 12:12:02;;;;;;;7.05;6.15;;;30.70;43.00;;;;;;5073107;28;20048;-75
2023/07/08 12:14:28;;;;;;;6.40;5.63;;;30.70;43.10;;;;;;5072523;28;20448;-74
2023/07/08 12:16:55;;;;;;;8.02;6.97;;;30.60;42.60;;;;;;5072483;28;20124;-74
2023/07/08 12:19:25;;;;;;;7.68;6.05;;;30.30;42.30;;;;;;5070669;28;20056;-74
2023/07/08 12:21:51;;;;;;;7.25;5.70;;;30.10;43.00;;;;;;5073126;28;20044;-74
2023/07/08 12:24:18;;;;;;;6.75;5.97;;;30.30;41.90;;;;;;5072487;28;20033;-75
2023/07/08 12:26:44;;;;;;;7.03;6.15;;;30.40;40.60;;;;;;5072567;28;20600;-75
2023/07/08 12:29:13;;;;;;;6.90;6.20;;;30.50;40.10;;;;;;5071792;28;20059;-75
2023/07/08 12:31:42;;;;;;;6.72;6.13;;;30.80;39.70;;;;;;5072400;28;20400;-75
2023/07/08 12:34:16;;;;;;;6.03;5.43;;;30.80;39.90;;;;;;5068178;28;20047;-74
2023/07/08 12:36:44;;;;;;;5.38;4.88;;;30.90;39.10;;;;;;5071423;28;20028;-74
2023/07/08 12:39:15;;;;;;;9.48;6.07;;;31.50;39.10;;;;;;5072821;28;20025;-75
2023/07/08 12:41:42;;;;;;;6.13;5.63;;;31.70;38.10;;;;;;5072987;28;20056;-74
2023/07/08 12:44:20;;;;;;;5.65;5.15;;;32.00;38.40;;;;;;5072144;28;20043;-74
2023/07/08 12:46:47;;;;;;;9.60;6.43;;;32.20;38.30;;;;;;5073224;28;20485;-75
2023/07/08 12:49:15;;;;;;;7.60;6.63;;;32.00;37.50;;;;;;5072985;28;20036;-74
2023/07/08 12:51:45;;;;;;;7.07;6.25;;;31.70;38.00;;;;;;5072717;28;20095;-74
2023/07/08 12:54:12;;;;;;;7.97;6.35;;;31.50;38.30;;;;;;5071264;28;20032;-75
2023/07/08 12:56:40;;;;;;;5.75;5.20;;;31.40;38.40;;;;;;5071648;28;20051;-75
2023/07/08 12:59:07;;;;;;;6.90;6.20;;;31.50;39.00;;;;;;5072400;28;20035;-74
2023/07/08 13:01:35;;;;;;;6.30;5.70;;;31.60;38.80;;;;;;5072871;28;20043;-75